sensor_id;sensor_type;location;lat;lon;timestamp;P1;durP1;ratioP1;P2;durP2;ratioP2
43807;SDS011;29438;50.664;10.098;2024-02-04T00:01:26;7.15;;;3.97;;
43807;SDS011;29438;50.664;10.098;2024-02-04T00:03:52;6.97;;;3.45;;
43807;SDS011;29438;50.664;10.098;2024-02-04T00:06:17;6.93;;;3.63;;
43807;SDS011;29438;50.664;10.098;2024-02-04T00:08:43;6.15;;;3.65;;
43807;SDS011;29438;50.664;10.098;2024-02-04T00:11:08;6.10;;;2.80;;
43807;SDS011;29438;50.664;10.098;2024-02-04T00:13:36;5.63;;;2.78;;
43807;SDS011;29438;50.664;10.098;2024-02-04T00:16:05;5.10;;;2.78;;
43807;SDS011;29438;50.664;10.098;2024-02-04T00:18:30;5.10;;;2.55;;
43807;SDS011;29438;50.664;10.098;2024-02-04T00:20:57;4.35;;;2.45;;
43807;SDS011;29438;50.664;10.098;2024-02-04T00:23:22;5.68;;;3.10;;
43807;SDS011;29438;50.664;10.098;2024-02-04T00:25:48;7.18;;;3.63;;
43807;SDS011;29438;50.664;10.098;2024-02-04T00:28:13;6.80;;;3.45;;
43807;SDS011;29438;50.664;10.098;2024-02-04T00:30:39;8.93;;;3.60;;
43807;SDS011;29438;50.664;10.098;2024-02-04T00:33:04;8.50;;;3.40;;
43807;SDS011;29438;50.664;10.098;2024-02-04T00:35:30;6.55;;;3.58;;
43807;SDS011;29438;50.664;10.098;2024-02-04T00:37:56;6.30;;;3.30;;
43807;SDS011;29438;50.664;10.098;2024-02-04T00:40:22;6.63;;;3.50;;
43807;SDS011;29438;50.664;10.098;2024-02-04T00:42:48;6.47;;;3.50;;
43807;SDS011;29438;50.664;10.098;2024-02-04T00:45:14;6.57;;;3.50;;
43807;SDS011;29438;50.664;10.098;2024-02-04T00:47:39;5.72;;;3.05;;
43807;SDS011;29438;50.664;10.098;2024-02-04T00:50:05;6.07;;;3.33;;
43807;SDS011;29438;50.664;10.098;2024-02-04T00:52:31;5.85;;;2.92;;
43807;SDS011;29438;50.664;10.098;2024-02-04T00:54:56;5.65;;;3.40;;
43807;SDS011;29438;50.664;10.098;2024-02-04T00:57:22;4.75;;;2.45;;
43807;SDS011;29438;50.664;10.098;2024-02-04T00:59:47;4.93;;;2.90;;
43807;SDS011;29438;50.664;10.098;2024-02-04T01:02:15;4.45;;;2.38;;
43807;SDS011;29438;50.664;10.098;2024-02-04T01:04:40;5.03;;;2.70;;
43807;SDS011;29438;50.664;10.098;2024-02-04T01:07:06;4.80;;;2.67;;
43807;SDS011;29438;50.664;10.098;2024-02-04T01:09:31;5.03;;;2.80;;
43807;SDS011;29438;50.664;10.098;2024-02-04T01:11:57;4.85;;;2.60;;
43807;SDS011;29438;50.664;10.098;2024-02-04T01:14:23;4.55;;;2.60;;
43807;SDS011;29438;50.664;10.098;2024-02-04T01:16:48;4.60;;;2.40;;
43807;SDS011;29438;50.664;10.098;2024-02-04T01:19:13;5.03;;;2.80;;
43807;SDS011;29438;50.664;10.098;2024-02-04T01:21:39;4.50;;;2.40;;
43807;SDS011;29438;50.664;10.098;2024-02-04T01:24:05;4.22;;;2.28;;
43807;SDS011;29438;50.664;10.098;2024-02-04T01:26:31;3.85;;;2.35;;
43807;SDS011;29438;50.664;10.098;2024-02-04T01:28:56;4.95;;;2.35;;
43807;SDS011;29438;50.664;10.098;2024-02-04T01:31:22;3.78;;;1.92;;
43807;SDS011;29438;50.664;10.098;2024-02-04T01:33:47;3.15;;;2.05;;
43807;SDS011;29438;50.664;10.098;2024-02-04T01:36:13;3.35;;;2.08;;
43807;SDS011;29438;50.664;10.098;2024-02-04T01:38:38;3.35;;;1.67;;
43807;SDS011;29438;50.664;10.098;2024-02-04T01:41:04;3.90;;;2.10;;
43807;SDS011;29438;50.664;10.098;2024-02-04T01:43:29;4.85;;;2.70;;
43807;SDS011;29438;50.664;10.098;2024-02-04T01:45:56;4.70;;;2.30;;
43807;SDS011;29438;50.664;10.098;2024-02-04T01:48:22;4.70;;;2.92;;
43807;SDS011;29438;50.664;10.098;2024-02-04T01:50:49;4.63;;;2.33;;
43807;SDS011;29438;50.664;10.098;2024-02-04T01:53:18;3.75;;;2.20;;
43807;SDS011;29438;50.664;10.098;2024-02-04T01:55:46;3.92;;;2.25;;
43807;SDS011;29438;50.664;10.098;2024-02-04T01:58:14;4.07;;;2.35;;
43807;SDS011;29438;50.664;10.098;2024-02-04T02:00:39;5.05;;;2.88;;
43807;SDS011;29438;50.664;10.098;2024-02-04T02:03:05;5.32;;;2.83;;
43807;SDS011;29438;50.664;10.098;2024-02-04T02:05:32;4.95;;;3.03;;
43807;SDS011;29438;50.664;10.098;2024-02-04T02:07:58;6.40;;;3.20;;
43807;SDS011;29438;50.664;10.098;2024-02-04T02:10:24;5.13;;;3.03;;
43807;SDS011;29438;50.664;10.098;2024-02-04T02:12:56;5.00;;;3.03;;
43807;SDS011;29438;50.664;10.098;2024-02-04T02:15:36;5.38;;;3.22;;
43807;SDS011;29438;50.664;10.098;2024-02-04T02:18:21;5.30;;;2.90;;
43807;SDS011;29438;50.664;10.098;2024-02-04T02:21:01;5.80;;;3.33;;
43807;SDS011;29438;50.664;10.098;2024-02-04T02:23:30;5.47;;;2.90;;
43807;SDS011;29438;50.664;10.098;2024-02-04T02:25:59;6.30;;;3.00;;
43807;SDS011;29438;50.664;10.098;2024-02-04T02:28:27;4.72;;;3.25;;
43807;SDS011;29438;50.664;10.098;2024-02-04T02:30:52;5.78;;;2.80;;
43807;SDS011;29438;50.664;10.098;2024-02-04T02:33:18;4.68;;;2.42;;
43807;SDS011;29438;50.664;10.098;2024-02-04T02:35:43;4.53;;;2.45;;
43807;SDS011;29438;50.664;10.098;2024-02-04T02:38:15;4.30;;;2.70;;
43807;SDS011;29438;50.664;10.098;2024-02-04T02:41:01;4.72;;;2.72;;
43807;SDS011;29438;50.664;10.098;2024-02-04T02:43:29;4.45;;;2.78;;
43807;SDS011;29438;50.664;10.098;2024-02-04T02:45:56;4.43;;;2.35;;
43807;SDS011;29438;50.664;10.098;2024-02-04T02:48:22;4.50;;;2.55;;
43807;SDS011;29438;50.664;10.098;2024-02-04T02:50:49;4.35;;;2.78;;
43807;SDS011;29438;50.664;10.098;2024-02-04T02:53:15;4.25;;;2.60;;
43807;SDS011;29438;50.664;10.098;2024-02-04T02:55:41;3.88;;;2.30;;
43807;SDS011;29438;50.664;10.098;2024-02-04T02:58:06;4.15;;;2.22;;
43807;SDS011;29438;50.664;10.098;2024-02-04T03:00:32;4.30;;;2.35;;
43807;SDS011;29438;50.664;10.098;2024-02-04T03:02:58;3.65;;;2.10;;
43807;SDS011;29438;50.664;10.098;2024-02-04T03:05:24;3.55;;;1.90;;
43807;SDS011;29438;50.664;10.098;2024-02-04T03:07:49;4.03;;;2.30;;
43807;SDS011;29438;50.664;10.098;2024-02-04T03:10:15;3.40;;;2.05;;
43807;SDS011;29438;50.664;10.098;2024-02-04T03:12:40;4.30;;;2.47;;
43807;SDS011;29438;50.664;10.098;2024-02-04T03:15:06;4.40;;;2.20;;
43807;SDS011;29438;50.664;10.098;2024-02-04T03:17:32;3.88;;;2.03;;
43807;SDS011;29438;50.664;10.098;2024-02-04T03:19:57;4.20;;;2.20;;
43807;SDS011;29438;50.664;10.098;2024-02-04T03:22:23;3.78;;;2.00;;
43807;SDS011;29438;50.664;10.098;2024-02-04T03:24:48;3.10;;;1.70;;
43807;SDS011;29438;50.664;10.098;2024-02-04T03:27:16;4.53;;;1.88;;
43807;SDS011;29438;50.664;10.098;2024-02-04T03:29:42;3.22;;;1.83;;
43807;SDS011;29438;50.664;10.098;2024-02-04T03:32:08;3.63;;;2.13;;
43807;SDS011;29438;50.664;10.098;2024-02-04T03:34:35;4.38;;;1.90;;
43807;SDS011;29438;50.664;10.098;2024-02-04T03:37:01;4.05;;;2.00;;
43807;SDS011;29438;50.664;10.098;2024-02-04T03:39:26;3.83;;;1.88;;
43807;SDS011;29438;50.664;10.098;2024-02-04T03:41:52;3.00;;;1.63;;
43807;SDS011;29438;50.664;10.098;2024-02-04T03:44:17;2.35;;;1.30;;
43807;SDS011;29438;50.664;10.098;2024-02-04T03:46:43;3.20;;;1.70;;
43807;SDS011;29438;50.664;10.098;2024-02-04T03:49:13;3.72;;;1.60;;
43807;SDS011;29438;50.664;10.098;2024-02-04T03:51:38;3.03;;;1.50;;
43807;SDS011;29438;50.664;10.098;2024-02-04T03:54:04;3.13;;;1.13;;
43807;SDS011;29438;50.664;10.098;2024-02-04T03:56:29;2.72;;;1.30;;
43807;SDS011;29438;50.664;10.098;2024-02-04T03:58:55;2.30;;;1.20;;
43807;SDS011;29438;50.664;10.098;2024-02-04T04:01:21;2.58;;;1.17;;
43807;SDS011;29438;50.664;10.098;2024-02-04T04:03:46;3.03;;;1.40;;
43807;SDS011;29438;50.664;10.098;2024-02-04T04:06:12;2.80;;;1.55;;
43807;SDS011;29438;50.664;10.098;2024-02-04T04:08:37;3.38;;;2.05;;
43807;SDS011;29438;50.664;10.098;2024-02-04T04:11:03;3.20;;;1.70;;
43807;SDS011;29438;50.664;10.098;2024-02-04T04:13:29;2.55;;;1.42;;
43807;SDS011;29438;50.664;10.098;2024-02-04T04:15:55;3.67;;;1.45;;
43807;SDS011;29438;50.664;10.098;2024-02-04T04:18:20;3.10;;;1.55;;
43807;SDS011;29438;50.664;10.098;2024-02-04T04:20:46;2.67;;;1.38;;
43807;SDS011;29438;50.664;10.098;2024-02-04T04:23:14;2.88;;;1.42;;
43807;SDS011;29438;50.664;10.098;2024-02-04T04:25:40;3.13;;;1.48;;
43807;SDS011;29438;50.664;10.098;2024-02-04T04:28:05;2.53;;;1.30;;
43807;SDS011;29438;50.664;10.098;2024-02-04T04:30:31;1.98;;;0.95;;
43807;SDS011;29438;50.664;10.098;2024-02-04T04:32:56;2.55;;;1.23;;
43807;SDS011;29438;50.664;10.098;2024-02-04T04:35:23;2.00;;;0.93;;
43807;SDS011;29438;50.664;10.098;2024-02-04T04:37:49;2.40;;;1.10;;
43807;SDS011;29438;50.664;10.098;2024-02-04T04:40:14;1.80;;;0.70;;
43807;SDS011;29438;50.664;10.098;2024-02-04T04:42:40;1.73;;;0.82;;
43807;SDS011;29438;50.664;10.098;2024-02-04T04:45:06;3.08;;;0.80;;
43807;SDS011;29438;50.664;10.098;2024-02-04T04:47:33;1.75;;;0.73;;
43807;SDS011;29438;50.664;10.098;2024-02-04T04:49:58;1.70;;;0.70;;
43807;SDS011;29438;50.664;10.098;2024-02-04T04:52:24;1.60;;;0.80;;
43807;SDS011;29438;50.664;10.098;2024-02-04T04:54:50;1.45;;;0.50;;
43807;SDS011;29438;50.664;10.098;2024-02-04T04:57:15;1.40;;;0.50;;
43807;SDS011;29438;50.664;10.098;2024-02-04T04:59:41;1.20;;;0.43;;
43807;SDS011;29438;50.664;10.098;2024-02-04T05:02:06;1.40;;;0.40;;
43807;SDS011;29438;50.664;10.098;2024-02-04T05:04:32;1.20;;;0.47;;
43807;SDS011;29438;50.664;10.098;2024-02-04T05:06:57;0.80;;;0.30;;
43807;SDS011;29438;50.664;10.098;2024-02-04T05:09:23;1.15;;;0.40;;
43807;SDS011;29438;50.664;10.098;2024-02-04T05:11:48;1.27;;;0.50;;
43807;SDS011;29438;50.664;10.098;2024-02-04T05:14:14;1.70;;;0.65;;
43807;SDS011;29438;50.664;10.098;2024-02-04T05:16:39;1.40;;;0.57;;
43807;SDS011;29438;50.664;10.098;2024-02-04T05:19:05;1.30;;;0.63;;
43807;SDS011;29438;50.664;10.098;2024-02-04T05:21:30;1.30;;;0.60;;
43807;SDS011;29438;50.664;10.098;2024-02-04T05:23:56;1.75;;;0.45;;
43807;SDS011;29438;50.664;10.098;2024-02-04T05:26:21;1.90;;;0.40;;
43807;SDS011;29438;50.664;10.098;2024-02-04T05:28:47;1.25;;;0.60;;
43807;SDS011;29438;50.664;10.098;2024-02-04T05:31:12;1.35;;;0.52;;
43807;SDS011;29438;50.664;10.098;2024-02-04T05:33:38;1.10;;;0.43;;
43807;SDS011;29438;50.664;10.098;2024-02-04T05:36:03;1.58;;;0.68;;
43807;SDS011;29438;50.664;10.098;2024-02-04T05:38:30;1.20;;;0.50;;
43807;SDS011;29438;50.664;10.098;2024-02-04T05:40:55;1.40;;;0.60;;
43807;SDS011;29438;50.664;10.098;2024-02-04T05:43:21;1.35;;;0.50;;
43807;SDS011;29438;50.664;10.098;2024-02-04T05:45:46;1.08;;;0.47;;
43807;SDS011;29438;50.664;10.098;2024-02-04T05:48:12;1.17;;;0.40;;
43807;SDS011;29438;50.664;10.098;2024-02-04T05:50:38;1.13;;;0.40;;
43807;SDS011;29438;50.664;10.098;2024-02-04T05:53:04;1.08;;;0.40;;
43807;SDS011;29438;50.664;10.098;2024-02-04T05:55:29;0.90;;;0.30;;
43807;SDS011;29438;50.664;10.098;2024-02-04T05:57:55;1.23;;;0.30;;
43807;SDS011;29438;50.664;10.098;2024-02-04T06:00:20;0.73;;;0.20;;
43807;SDS011;29438;50.664;10.098;2024-02-04T06:02:46;0.90;;;0.40;;
43807;SDS011;29438;50.664;10.098;2024-02-04T06:05:13;0.95;;;0.30;;
43807;SDS011;29438;50.664;10.098;2024-02-04T06:07:39;1.05;;;0.30;;
43807;SDS011;29438;50.664;10.098;2024-02-04T06:10:08;0.80;;;0.20;;
43807;SDS011;29438;50.664;10.098;2024-02-04T06:12:34;0.98;;;0.40;;
43807;SDS011;29438;50.664;10.098;2024-02-04T06:15:00;1.42;;;0.35;;
43807;SDS011;29438;50.664;10.098;2024-02-04T06:17:25;0.90;;;0.20;;
43807;SDS011;29438;50.664;10.098;2024-02-04T06:19:50;0.98;;;0.30;;
43807;SDS011;29438;50.664;10.098;2024-02-04T06:22:16;1.20;;;0.40;;
43807;SDS011;29438;50.664;10.098;2024-02-04T06:24:42;0.95;;;0.30;;
43807;SDS011;29438;50.664;10.098;2024-02-04T06:27:07;1.05;;;0.30;;
43807;SDS011;29438;50.664;10.098;2024-02-04T06:29:33;1.00;;;0.30;;
43807;SDS011;29438;50.664;10.098;2024-02-04T06:31:59;1.40;;;0.20;;
43807;SDS011;29438;50.664;10.098;2024-02-04T06:34:24;0.77;;;0.20;;
43807;SDS011;29438;50.664;10.098;2024-02-04T06:36:50;0.80;;;0.20;;
43807;SDS011;29438;50.664;10.098;2024-02-04T06:39:16;0.90;;;0.30;;
43807;SDS011;29438;50.664;10.098;2024-02-04T06:41:41;0.90;;;0.20;;
43807;SDS011;29438;50.664;10.098;2024-02-04T06:44:07;0.70;;;0.20;;
43807;SDS011;29438;50.664;10.098;2024-02-04T06:46:33;1.25;;;0.30;;
43807;SDS011;29438;50.664;10.098;2024-02-04T06:48:58;1.25;;;0.30;;
43807;SDS011;29438;50.664;10.098;2024-02-04T06:51:24;1.60;;;0.50;;
43807;SDS011;29438;50.664;10.098;2024-02-04T06:53:49;1.23;;;0.55;;
43807;SDS011;29438;50.664;10.098;2024-02-04T06:56:15;1.35;;;0.40;;
43807;SDS011;29438;50.664;10.098;2024-02-04T06:58:41;1.10;;;0.20;;
43807;SDS011;29438;50.664;10.098;2024-02-04T07:01:07;0.47;;;0.10;;
43807;SDS011;29438;50.664;10.098;2024-02-04T07:03:32;0.70;;;0.20;;
43807;SDS011;29438;50.664;10.098;2024-02-04T07:05:58;1.65;;;0.40;;
43807;SDS011;29438;50.664;10.098;2024-02-04T07:08:24;1.52;;;0.50;;
43807;SDS011;29438;50.664;10.098;2024-02-04T07:10:50;1.02;;;0.40;;
43807;SDS011;29438;50.664;10.098;2024-02-04T07:13:17;1.77;;;0.60;;
43807;SDS011;29438;50.664;10.098;2024-02-04T07:15:42;1.73;;;0.75;;
43807;SDS011;29438;50.664;10.098;2024-02-04T07:18:09;2.17;;;0.90;;
43807;SDS011;29438;50.664;10.098;2024-02-04T07:20:34;1.88;;;0.70;;
43807;SDS011;29438;50.664;10.098;2024-02-04T07:23:00;2.50;;;0.90;;
43807;SDS011;29438;50.664;10.098;2024-02-04T07:25:25;2.33;;;0.90;;
43807;SDS011;29438;50.664;10.098;2024-02-04T07:27:51;3.63;;;1.60;;
43807;SDS011;29438;50.664;10.098;2024-02-04T07:30:17;2.50;;;0.93;;
43807;SDS011;29438;50.664;10.098;2024-02-04T07:32:42;3.25;;;1.10;;
43807;SDS011;29438;50.664;10.098;2024-02-04T07:35:08;2.35;;;0.98;;
43807;SDS011;29438;50.664;10.098;2024-02-04T07:37:37;3.17;;;1.25;;
43807;SDS011;29438;50.664;10.098;2024-02-04T07:40:03;2.58;;;1.10;;
43807;SDS011;29438;50.664;10.098;2024-02-04T07:42:30;3.55;;;1.35;;
43807;SDS011;29438;50.664;10.098;2024-02-04T07:44:55;5.35;;;1.65;;
43807;SDS011;29438;50.664;10.098;2024-02-04T07:47:21;2.83;;;1.35;;
43807;SDS011;29438;50.664;10.098;2024-02-04T07:49:47;5.07;;;1.85;;
43807;SDS011;29438;50.664;10.098;2024-02-04T07:52:13;4.75;;;2.35;;
43807;SDS011;29438;50.664;10.098;2024-02-04T07:54:40;6.28;;;2.70;;
43807;SDS011;29438;50.664;10.098;2024-02-04T07:57:05;4.38;;;2.10;;
43807;SDS011;29438;50.664;10.098;2024-02-04T07:59:31;4.93;;;2.17;;
43807;SDS011;29438;50.664;10.098;2024-02-04T08:01:56;3.40;;;1.40;;
43807;SDS011;29438;50.664;10.098;2024-02-04T08:04:23;3.70;;;1.35;;
43807;SDS011;29438;50.664;10.098;2024-02-04T08:06:48;3.58;;;1.65;;
43807;SDS011;29438;50.664;10.098;2024-02-04T08:09:14;3.03;;;1.02;;
43807;SDS011;29438;50.664;10.098;2024-02-04T08:11:40;2.58;;;1.08;;
43807;SDS011;29438;50.664;10.098;2024-02-04T08:14:06;3.72;;;1.40;;
43807;SDS011;29438;50.664;10.098;2024-02-04T08:16:31;3.80;;;1.58;;
43807;SDS011;29438;50.664;10.098;2024-02-04T08:18:57;3.85;;;1.70;;
43807;SDS011;29438;50.664;10.098;2024-02-04T08:21:23;5.28;;;2.28;;
43807;SDS011;29438;50.664;10.098;2024-02-04T08:23:48;5.90;;;2.80;;
43807;SDS011;29438;50.664;10.098;2024-02-04T08:26:14;4.32;;;2.15;;
43807;SDS011;29438;50.664;10.098;2024-02-04T08:28:40;5.25;;;2.50;;
43807;SDS011;29438;50.664;10.098;2024-02-04T08:31:05;4.53;;;2.22;;
43807;SDS011;29438;50.664;10.098;2024-02-04T08:33:31;5.20;;;2.35;;
43807;SDS011;29438;50.664;10.098;2024-02-04T08:35:56;4.88;;;2.40;;
43807;SDS011;29438;50.664;10.098;2024-02-04T08:38:21;6.55;;;2.10;;
43807;SDS011;29438;50.664;10.098;2024-02-04T08:40:47;4.70;;;2.28;;
43807;SDS011;29438;50.664;10.098;2024-02-04T08:43:12;5.95;;;2.47;;
43807;SDS011;29438;50.664;10.098;2024-02-04T08:45:38;7.20;;;3.58;;
43807;SDS011;29438;50.664;10.098;2024-02-04T08:48:03;7.20;;;3.13;;
43807;SDS011;29438;50.664;10.098;2024-02-04T08:50:29;6.88;;;3.50;;
43807;SDS011;29438;50.664;10.098;2024-02-04T08:52:55;8.05;;;3.00;;
43807;SDS011;29438;50.664;10.098;2024-02-04T08:55:20;5.18;;;2.80;;
43807;SDS011;29438;50.664;10.098;2024-02-04T08:57:46;13.13;;;7.88;;
43807;SDS011;29438;50.664;10.098;2024-02-04T09:00:13;7.07;;;3.35;;
43807;SDS011;29438;50.664;10.098;2024-02-04T09:02:39;10.32;;;5.75;;
43807;SDS011;29438;50.664;10.098;2024-02-04T09:05:05;6.32;;;3.10;;
43807;SDS011;29438;50.664;10.098;2024-02-04T09:07:31;18.42;;;10.57;;
43807;SDS011;29438;50.664;10.098;2024-02-04T09:09:56;5.70;;;3.40;;
43807;SDS011;29438;50.664;10.098;2024-02-04T09:12:22;6.70;;;3.47;;
43807;SDS011;29438;50.664;10.098;2024-02-04T09:14:47;6.85;;;3.65;;
43807;SDS011;29438;50.664;10.098;2024-02-04T09:17:13;6.65;;;3.85;;
43807;SDS011;29438;50.664;10.098;2024-02-04T09:19:39;4.88;;;2.40;;
43807;SDS011;29438;50.664;10.098;2024-02-04T09:22:04;5.65;;;2.80;;
43807;SDS011;29438;50.664;10.098;2024-02-04T09:24:30;5.93;;;3.08;;
43807;SDS011;29438;50.664;10.098;2024-02-04T09:26:55;7.63;;;4.30;;
43807;SDS011;29438;50.664;10.098;2024-02-04T09:29:21;4.20;;;1.88;;
43807;SDS011;29438;50.664;10.098;2024-02-04T09:31:46;8.27;;;3.90;;
43807;SDS011;29438;50.664;10.098;2024-02-04T09:34:14;10.52;;;5.15;;
43807;SDS011;29438;50.664;10.098;2024-02-04T09:36:40;2.92;;;1.65;;
43807;SDS011;29438;50.664;10.098;2024-02-04T09:39:05;3.50;;;1.90;;
43807;SDS011;29438;50.664;10.098;2024-02-04T09:41:31;2.90;;;1.40;;
43807;SDS011;29438;50.664;10.098;2024-02-04T09:43:57;4.38;;;1.60;;
43807;SDS011;29438;50.664;10.098;2024-02-04T09:46:24;3.45;;;1.60;;
43807;SDS011;29438;50.664;10.098;2024-02-04T09:48:50;3.50;;;1.63;;
43807;SDS011;29438;50.664;10.098;2024-02-04T09:51:18;4.50;;;1.65;;
43807;SDS011;29438;50.664;10.098;2024-02-04T09:53:44;2.42;;;0.90;;
43807;SDS011;29438;50.664;10.098;2024-02-04T09:56:10;3.15;;;1.00;;
43807;SDS011;29438;50.664;10.098;2024-02-04T09:58:37;1.35;;;0.70;;
43807;SDS011;29438;50.664;10.098;2024-02-04T10:01:04;1.75;;;0.55;;
43807;SDS011;29438;50.664;10.098;2024-02-04T10:03:30;3.47;;;1.38;;
43807;SDS011;29438;50.664;10.098;2024-02-04T10:05:56;2.60;;;1.10;;
43807;SDS011;29438;50.664;10.098;2024-02-04T10:08:21;2.33;;;0.93;;
43807;SDS011;29438;50.664;10.098;2024-02-04T10:10:47;3.97;;;1.55;;
43807;SDS011;29438;50.664;10.098;2024-02-04T10:13:13;2.22;;;0.70;;
43807;SDS011;29438;50.664;10.098;2024-02-04T10:15:39;1.25;;;0.55;;
43807;SDS011;29438;50.664;10.098;2024-02-04T10:18:04;1.38;;;0.40;;
43807;SDS011;29438;50.664;10.098;2024-02-04T10:20:31;2.30;;;1.10;;
43807;SDS011;29438;50.664;10.098;2024-02-04T10:22:57;1.50;;;0.63;;
43807;SDS011;29438;50.664;10.098;2024-02-04T10:25:23;1.00;;;0.25;;
43807;SDS011;29438;50.664;10.098;2024-02-04T10:27:49;1.13;;;0.50;;
43807;SDS011;29438;50.664;10.098;2024-02-04T10:30:14;1.15;;;0.40;;
43807;SDS011;29438;50.664;10.098;2024-02-04T10:32:41;1.45;;;0.70;;
43807;SDS011;29438;50.664;10.098;2024-02-04T10:35:07;0.82;;;0.30;;
43807;SDS011;29438;50.664;10.098;2024-02-04T10:37:33;1.70;;;0.80;;
43807;SDS011;29438;50.664;10.098;2024-02-04T10:39:59;2.20;;;1.17;;
43807;SDS011;29438;50.664;10.098;2024-02-04T10:42:26;1.35;;;0.60;;
43807;SDS011;29438;50.664;10.098;2024-02-04T10:44:55;1.70;;;0.80;;
43807;SDS011;29438;50.664;10.098;2024-02-04T10:47:24;2.67;;;0.80;;
43807;SDS011;29438;50.664;10.098;2024-02-04T10:49:54;1.67;;;0.77;;
43807;SDS011;29438;50.664;10.098;2024-02-04T10:52:23;1.48;;;0.52;;
43807;SDS011;29438;50.664;10.098;2024-02-04T10:54:52;2.17;;;1.00;;
43807;SDS011;29438;50.664;10.098;2024-02-04T10:57:21;1.85;;;0.70;;
43807;SDS011;29438;50.664;10.098;2024-02-04T10:59:51;1.15;;;0.50;;
43807;SDS011;29438;50.664;10.098;2024-02-04T11:02:17;1.30;;;0.50;;
43807;SDS011;29438;50.664;10.098;2024-02-04T11:04:44;1.15;;;0.35;;
43807;SDS011;29438;50.664;10.098;2024-02-04T11:07:13;0.75;;;0.20;;
43807;SDS011;29438;50.664;10.098;2024-02-04T11:09:39;1.38;;;0.70;;
43807;SDS011;29438;50.664;10.098;2024-02-04T11:12:06;2.33;;;0.50;;
43807;SDS011;29438;50.664;10.098;2024-02-04T11:14:38;1.10;;;0.40;;
43807;SDS011;29438;50.664;10.098;2024-02-04T11:25:17;1.60;;;0.60;;
43807;SDS011;29438;50.664;10.098;2024-02-04T11:28:05;3.03;;;1.15;;
43807;SDS011;29438;50.664;10.098;2024-02-04T11:30:34;1.45;;;0.63;;
43807;SDS011;29438;50.664;10.098;2024-02-04T11:33:01;1.60;;;0.80;;
43807;SDS011;29438;50.664;10.098;2024-02-04T11:35:28;1.40;;;0.45;;
43807;SDS011;29438;50.664;10.098;2024-02-04T11:37:54;1.00;;;0.35;;
43807;SDS011;29438;50.664;10.098;2024-02-04T11:40:20;0.68;;;0.28;;
43807;SDS011;29438;50.664;10.098;2024-02-04T11:42:48;0.55;;;0.20;;
43807;SDS011;29438;50.664;10.098;2024-02-04T11:45:14;0.70;;;0.20;;
43807;SDS011;29438;50.664;10.098;2024-02-04T11:47:39;0.95;;;0.20;;
43807;SDS011;29438;50.664;10.098;2024-02-04T11:50:06;0.40;;;0.10;;
43807;SDS011;29438;50.664;10.098;2024-02-04T11:52:32;0.63;;;0.13;;
43807;SDS011;29438;50.664;10.098;2024-02-04T11:54:59;1.15;;;0.20;;
43807;SDS011;29438;50.664;10.098;2024-02-04T11:57:24;0.50;;;0.10;;
43807;SDS011;29438;50.664;10.098;2024-02-04T11:59:51;0.98;;;0.10;;
43807;SDS011;29438;50.664;10.098;2024-02-04T12:02:19;0.50;;;0.10;;
43807;SDS011;29438;50.664;10.098;2024-02-04T12:04:45;0.50;;;0.10;;
43807;SDS011;29438;50.664;10.098;2024-02-04T12:07:11;0.57;;;0.10;;
43807;SDS011;29438;50.664;10.098;2024-02-04T12:09:39;0.70;;;0.20;;
43807;SDS011;29438;50.664;10.098;2024-02-04T12:12:05;0.60;;;0.10;;
43807;SDS011;29438;50.664;10.098;2024-02-04T12:14:31;0.52;;;0.10;;
43807;SDS011;29438;50.664;10.098;2024-02-04T12:16:57;0.65;;;0.20;;
43807;SDS011;29438;50.664;10.098;2024-02-04T12:19:23;0.90;;;0.30;;
43807;SDS011;29438;50.664;10.098;2024-02-04T12:21:49;1.10;;;0.25;;
43807;SDS011;29438;50.664;10.098;2024-02-04T12:24:14;1.73;;;0.30;;
43807;SDS011;29438;50.664;10.098;2024-02-04T12:26:40;3.40;;;0.80;;
43807;SDS011;29438;50.664;10.098;2024-02-04T12:29:06;0.50;;;0.10;;
43807;SDS011;29438;50.664;10.098;2024-02-04T12:31:32;1.30;;;0.20;;
43807;SDS011;29438;50.664;10.098;2024-02-04T12:33:59;6.63;;;1.70;;
43807;SDS011;29438;50.664;10.098;2024-02-04T12:36:26;1.30;;;0.40;;
43807;SDS011;29438;50.664;10.098;2024-02-04T12:38:59;3.80;;;1.20;;
43807;SDS011;29438;50.664;10.098;2024-02-04T12:41:26;1.25;;;0.40;;
43807;SDS011;29438;50.664;10.098;2024-02-04T12:43:53;1.23;;;0.17;;
43807;SDS011;29438;50.664;10.098;2024-02-04T12:46:19;1.90;;;0.50;;
43807;SDS011;29438;50.664;10.098;2024-02-04T12:48:56;0.30;;;0.10;;
43807;SDS011;29438;50.664;10.098;2024-02-04T12:51:24;1.40;;;0.35;;
43807;SDS011;29438;50.664;10.098;2024-02-04T12:57:06;1.40;;;0.70;;
43807;SDS011;29438;50.664;10.098;2024-02-04T13:02:03;1.20;;;0.40;;
43807;SDS011;29438;50.664;10.098;2024-02-04T13:04:34;1.42;;;0.40;;
43807;SDS011;29438;50.664;10.098;2024-02-04T13:07:00;2.95;;;1.25;;
43807;SDS011;29438;50.664;10.098;2024-02-04T13:09:25;1.15;;;0.30;;
43807;SDS011;29438;50.664;10.098;2024-02-04T13:11:51;0.98;;;0.40;;
43807;SDS011;29438;50.664;10.098;2024-02-04T13:14:17;2.53;;;0.82;;
43807;SDS011;29438;50.664;10.098;2024-02-04T13:16:42;1.30;;;0.50;;
43807;SDS011;29438;50.664;10.098;2024-02-04T13:19:08;2.22;;;0.47;;
43807;SDS011;29438;50.664;10.098;2024-02-04T13:21:33;2.20;;;0.50;;
43807;SDS011;29438;50.664;10.098;2024-02-04T13:23:59;2.15;;;0.60;;
43807;SDS011;29438;50.664;10.098;2024-02-04T13:26:25;1.35;;;0.40;;
43807;SDS011;29438;50.664;10.098;2024-02-04T13:28:50;1.60;;;0.52;;
43807;SDS011;29438;50.664;10.098;2024-02-04T13:31:16;1.50;;;0.47;;
43807;SDS011;29438;50.664;10.098;2024-02-04T13:33:41;2.75;;;0.73;;
43807;SDS011;29438;50.664;10.098;2024-02-04T13:36:07;1.38;;;0.50;;
43807;SDS011;29438;50.664;10.098;2024-02-04T13:38:33;1.50;;;0.60;;
43807;SDS011;29438;50.664;10.098;2024-02-04T13:40:59;1.38;;;0.60;;
43807;SDS011;29438;50.664;10.098;2024-02-04T13:43:25;1.40;;;0.70;;
43807;SDS011;29438;50.664;10.098;2024-02-04T13:45:51;1.13;;;0.38;;
43807;SDS011;29438;50.664;10.098;2024-02-04T13:48:17;2.80;;;0.70;;
43807;SDS011;29438;50.664;10.098;2024-02-04T13:50:43;1.40;;;0.52;;
43807;SDS011;29438;50.664;10.098;2024-02-04T13:53:10;1.60;;;0.57;;
43807;SDS011;29438;50.664;10.098;2024-02-04T13:55:36;0.70;;;0.22;;
43807;SDS011;29438;50.664;10.098;2024-02-04T13:58:02;1.35;;;0.40;;
43807;SDS011;29438;50.664;10.098;2024-02-04T14:00:28;0.60;;;0.20;;
43807;SDS011;29438;50.664;10.098;2024-02-04T14:02:53;0.60;;;0.10;;
43807;SDS011;29438;50.664;10.098;2024-02-04T14:05:19;1.38;;;0.20;;
43807;SDS011;29438;50.664;10.098;2024-02-04T14:07:45;0.60;;;0.10;;
43807;SDS011;29438;50.664;10.098;2024-02-04T14:10:10;1.50;;;0.38;;
43807;SDS011;29438;50.664;10.098;2024-02-04T14:12:37;0.98;;;0.35;;
43807;SDS011;29438;50.664;10.098;2024-02-04T14:15:04;1.98;;;0.60;;
43807;SDS011;29438;50.664;10.098;2024-02-04T14:17:32;0.73;;;0.28;;
43807;SDS011;29438;50.664;10.098;2024-02-04T14:19:57;0.63;;;0.20;;
43807;SDS011;29438;50.664;10.098;2024-02-04T14:22:23;1.35;;;0.30;;
43807;SDS011;29438;50.664;10.098;2024-02-04T14:24:49;2.35;;;0.70;;
43807;SDS011;29438;50.664;10.098;2024-02-04T14:27:15;2.13;;;0.63;;
43807;SDS011;29438;50.664;10.098;2024-02-04T14:29:40;1.58;;;0.30;;
43807;SDS011;29438;50.664;10.098;2024-02-04T14:32:06;1.55;;;0.60;;
43807;SDS011;29438;50.664;10.098;2024-02-04T14:34:31;1.13;;;0.22;;
43807;SDS011;29438;50.664;10.098;2024-02-04T14:36:57;1.63;;;0.73;;
43807;SDS011;29438;50.664;10.098;2024-02-04T14:39:22;1.13;;;0.20;;
43807;SDS011;29438;50.664;10.098;2024-02-04T14:41:48;0.65;;;0.20;;